Terminal Aerodrome Forecast
Issued by NWS Cleveland, OH

Home | Current Version | Previous Version | Graphics & Text | Print | Product List | Glossary Off
Versions: 1 2 3 4 5 6 7 8 9 10 11 12 13 14 15 16 17 18 19 20 21 22 23 24 25 26

000
FTUS41 KCLE 061100
TAFCAK
TAF
KCAK 061136Z 0612/0712 06006KT 1/4SM FG VV001
      TEMPO 0612/0613 VRB03KT 1SM BR OVC004
     FM061300 VRB05KT 3SM BR BKN006
     FM061500 32005KT P6SM BKN010 BKN250
     FM061700 32006KT P6SM SCT015 BKN250
     FM070600 VRB03KT 4SM BR SCT250
     FM070800 00000KT 2SM BR SCT004=

USA.gov is the U.S. government's official web portal to all federal, state and local government web resources and services.